createdAt,value
2018-12-04T00:02:04.850Z,65.93
2018-12-04T00:04:33.368Z,69.70
2018-12-04T00:07:02.258Z,68.03
2018-12-04T00:09:30.769Z,71.37
2018-12-04T00:11:59.324Z,70.80
2018-12-04T00:14:28.170Z,70.13
2018-12-04T00:16:56.602Z,69.83
2018-12-04T00:19:25.041Z,71.70
2018-12-04T00:21:53.974Z,73.97
2018-12-04T00:24:22.558Z,72.97
2018-12-04T00:26:51.036Z,73.93
2018-12-04T00:29:20.090Z,71.30
2018-12-04T00:31:48.105Z,70.47
2018-12-04T00:34:16.613Z,72.90
2018-12-04T00:36:45.346Z,75.10
2018-12-04T00:39:13.861Z,71.87
2018-12-04T00:41:42.380Z,72.70
2018-12-04T00:44:11.658Z,76.13
2018-12-04T00:46:40.230Z,81.80
2018-12-04T00:49:08.673Z,84.07
2018-12-04T00:51:37.505Z,79.57
2018-12-04T00:54:06.163Z,83.13
2018-12-04T00:56:34.539Z,85.50
2018-12-04T00:59:04.515Z,86.20
2018-12-04T01:01:33.050Z,85.93
2018-12-04T01:04:01.009Z,84.77
2018-12-04T01:06:29.829Z,89.23
2018-12-04T01:08:58.342Z,85.53
2018-12-04T01:11:27.101Z,87.90
2018-12-04T01:13:55.738Z,91.63
2018-12-04T01:16:24.305Z,87.10
2018-12-04T01:18:52.961Z,86.43
2018-12-04T01:21:21.689Z,90.53
2018-12-04T01:23:49.926Z,89.80
2018-12-04T01:26:18.406Z,91.30
2018-12-04T01:28:47.052Z,87.40
2018-12-04T01:31:15.682Z,89.67
2018-12-04T01:33:44.377Z,93.53
2018-12-04T01:36:13.495Z,89.93
2018-12-04T01:38:42.253Z,89.07
2018-12-04T01:41:10.762Z,88.37
2018-12-04T01:43:39.634Z,88.90
2018-12-04T01:46:08.115Z,87.00
2018-12-04T01:48:36.561Z,86.47
2018-12-04T01:51:05.133Z,89.77
2018-12-04T01:53:34.714Z,92.37
2018-12-04T01:56:03.238Z,88.23
2018-12-04T01:58:32.161Z,90.43
2018-12-04T02:01:01.770Z,88.27
2018-12-04T02:03:30.356Z,87.60
2018-12-04T02:05:59.107Z,84.93
2018-12-04T02:08:27.122Z,90.70
2018-12-04T02:10:55.266Z,94.23
2018-12-04T02:13:24.087Z,88.90
2018-12-04T02:15:52.870Z,89.30
2018-12-04T02:18:21.278Z,89.93
2018-12-04T02:20:49.943Z,95.70
2018-12-04T02:23:18.699Z,92.60
2018-12-04T02:25:47.138Z,95.40
2018-12-04T02:28:16.002Z,92.20
2018-12-04T02:30:44.489Z,93.87
2018-12-04T02:33:13.169Z,92.80
2018-12-04T02:35:42.022Z,90.30
2018-12-04T02:38:10.546Z,98.13
2018-12-04T02:40:39.369Z,94.13
2018-12-04T02:43:08.423Z,93.63
2018-12-04T02:45:37.235Z,94.53
2018-12-04T02:48:05.745Z,96.97
2018-12-04T02:50:34.698Z,102.43
2018-12-04T02:53:03.767Z,102.40
2018-12-04T02:55:32.495Z,96.17
2018-12-04T02:58:01.556Z,104.90
2018-12-04T03:00:29.953Z,105.30
2018-12-04T03:02:59.407Z,105.50
2018-12-04T03:05:28.150Z,107.63
2018-12-04T03:07:56.708Z,109.60
2018-12-04T03:10:25.418Z,109.87
2018-12-04T03:12:53.879Z,110.07
2018-12-04T03:15:22.466Z,114.80
2018-12-04T03:17:51.174Z,110.57
2018-12-04T03:20:20.000Z,110.70
2018-12-04T03:22:48.394Z,111.80
2018-12-04T03:25:16.785Z,114.50
2018-12-04T03:27:45.866Z,116.73
2018-12-04T03:30:14.454Z,112.80
2018-12-04T03:32:43.008Z,119.47
2018-12-04T03:35:11.941Z,112.20
2018-12-04T03:37:40.375Z,112.03
2018-12-04T03:40:08.774Z,104.27
2018-12-04T03:42:37.001Z,104.70
2018-12-04T03:45:05.716Z,103.70
2018-12-04T03:47:34.169Z,100.63
2018-12-04T03:50:03.170Z,103.63
2018-12-04T03:52:32.265Z,101.63
2018-12-04T03:55:01.074Z,97.23
2018-12-04T03:57:29.793Z,90.27
2018-12-04T03:59:58.408Z,94.43
2018-12-04T04:02:27.114Z,102.97
2018-12-04T04:04:57.086Z,106.20
2018-12-04T04:07:25.700Z,106.87
2018-12-04T04:09:54.389Z,108.33
2018-12-04T04:12:23.500Z,114.83
2018-12-04T04:14:51.954Z,117.67
2018-12-04T04:17:20.586Z,115.03
2018-12-04T04:19:49.606Z,109.10
2018-12-04T04:22:18.150Z,112.27
2018-12-04T04:24:46.593Z,113.33
2018-12-04T04:27:15.757Z,112.23
2018-12-04T04:29:44.369Z,113.13
2018-12-04T04:32:13.132Z,113.20
2018-12-04T04:34:42.006Z,114.10
2018-12-04T04:37:10.505Z,115.47
2018-12-04T04:39:39.013Z,114.43
2018-12-04T04:42:08.015Z,112.43
2018-12-04T04:44:36.499Z,109.87
2018-12-04T04:47:05.082Z,109.13
2018-12-04T04:49:34.285Z,114.07
2018-12-04T04:52:02.938Z,116.60
2018-12-04T04:54:31.454Z,110.77
2018-12-04T04:57:00.314Z,115.40
2018-12-04T04:59:29.010Z,112.93
2018-12-04T05:01:57.687Z,108.03
2018-12-04T05:04:26.378Z,106.33
2018-12-04T05:06:55.954Z,105.37
2018-12-04T05:09:24.336Z,106.37
2018-12-04T05:11:53.195Z,106.87
2018-12-04T05:14:21.774Z,107.03
2018-12-04T05:16:50.498Z,102.37
2018-12-04T05:19:19.070Z,100.67
2018-12-04T05:21:47.394Z,96.97
2018-12-04T05:24:16.150Z,89.90
2018-12-04T05:26:44.953Z,89.80
2018-12-04T05:29:13.354Z,84.03
2018-12-04T05:31:42.042Z,88.13
2018-12-04T05:34:11.139Z,82.73
2018-12-04T05:36:39.929Z,73.37
2018-12-04T05:39:08.439Z,72.83
2018-12-04T05:41:37.333Z,73.40
2018-12-04T05:44:05.810Z,71.73
2018-12-04T05:46:34.570Z,70.23
2018-12-04T05:49:03.290Z,63.50
2018-12-04T05:51:31.850Z,67.30
2018-12-04T05:54:00.458Z,87.13
2018-12-04T05:56:29.531Z,88.87
2018-12-04T05:58:58.213Z,86.03
2018-12-04T06:01:26.701Z,86.10
2018-12-04T06:03:55.689Z,87.63
2018-12-04T06:06:24.299Z,82.77
2018-12-04T06:08:54.613Z,83.60
2018-12-04T06:11:23.499Z,89.93
2018-12-04T06:13:52.083Z,88.17
2018-12-04T06:16:20.696Z,80.60
2018-12-04T06:18:49.681Z,82.30
2018-12-04T06:21:18.046Z,75.63
2018-12-04T06:23:46.628Z,78.83
2018-12-04T06:26:15.650Z,81.03
2018-12-04T06:28:44.373Z,57.73
2018-12-04T06:31:12.658Z,56.00
2018-12-04T06:33:41.633Z,46.70
2018-12-04T06:36:10.191Z,43.50
2018-12-04T06:38:38.917Z,42.43
2018-12-04T06:41:07.426Z,40.33
2018-12-04T06:43:35.824Z,40.97
2018-12-04T06:46:04.574Z,40.33
2018-12-04T06:48:33.222Z,38.67
2018-12-04T06:51:01.778Z,40.00
2018-12-04T06:53:30.392Z,40.17
2018-12-04T06:55:59.486Z,36.53
2018-12-04T06:58:28.141Z,30.83
2018-12-04T07:00:56.653Z,31.37
2018-12-04T07:03:25.518Z,27.50
2018-12-04T07:05:54.871Z,21.80
2018-12-04T07:08:23.511Z,26.30
2018-12-04T07:10:53.675Z,21.57
2018-12-04T07:13:22.115Z,24.83
2018-12-04T07:15:50.869Z,26.17
2018-12-04T07:18:19.534Z,25.13
2018-12-04T07:20:47.966Z,24.07
2018-12-04T07:23:16.581Z,29.80
2018-12-04T07:25:45.557Z,22.00
2018-12-04T07:28:14.232Z,25.37
2018-12-04T07:30:42.644Z,18.23
2018-12-04T07:33:11.529Z,16.60
2018-12-04T07:35:40.630Z,16.80
2018-12-04T07:38:09.117Z,14.10
2018-12-04T07:40:38.186Z,7.50
2018-12-04T07:43:06.942Z,16.97
2018-12-04T07:45:35.313Z,14.40
2018-12-04T07:48:05.274Z,14.10
2018-12-04T07:50:34.030Z,9.50
2018-12-04T07:53:02.650Z,13.27
2018-12-04T07:55:31.385Z,12.97
2018-12-04T07:57:59.842Z,16.63
2018-12-04T08:00:28.399Z,20.87
2018-12-04T08:02:57.039Z,25.17
2018-12-04T08:05:25.570Z,20.53
2018-12-04T08:07:54.228Z,17.10
2018-12-04T08:10:22.892Z,19.83
2018-12-04T08:12:52.766Z,17.87
2018-12-04T08:15:21.446Z,13.97
2018-12-04T08:17:50.570Z,19.63
2018-12-04T08:20:19.124Z,19.30
2018-12-04T08:22:47.528Z,12.20
2018-12-04T08:25:16.397Z,15.07
2018-12-04T08:27:44.992Z,9.57
2018-12-04T08:30:13.742Z,14.00
2018-12-04T08:32:42.283Z,15.50
2018-12-04T08:35:10.738Z,13.57
2018-12-04T08:37:39.291Z,16.70
2018-12-04T08:40:07.938Z,9.90
2018-12-04T08:42:36.495Z,10.03
2018-12-04T08:45:05.618Z,9.60
2018-12-04T08:47:34.381Z,7.70
2018-12-04T08:50:03.072Z,20.97
2018-12-04T08:52:31.751Z,10.00
2018-12-04T08:55:00.369Z,11.43
2018-12-04T08:57:28.926Z,12.27
2018-12-04T08:59:57.582Z,10.80
2018-12-04T09:02:26.229Z,23.07
2018-12-04T09:04:54.706Z,9.97
2018-12-04T09:07:23.161Z,7.10
2018-12-04T09:09:52.286Z,9.43
2018-12-04T09:12:21.019Z,13.30
2018-12-04T09:14:49.590Z,13.40
2018-12-04T09:17:18.350Z,23.70
2018-12-04T09:19:46.709Z,19.53
2018-12-04T09:22:16.048Z,6.67
2018-12-04T09:24:44.819Z,8.03
2018-12-04T09:27:13.469Z,13.07
2018-12-04T09:29:42.079Z,22.50
2018-12-04T09:32:11.063Z,25.93
2018-12-04T09:34:39.645Z,26.90
2018-12-04T09:37:08.328Z,31.50
2018-12-04T09:39:37.482Z,35.03
2018-12-04T09:42:06.017Z,38.57
2018-12-04T09:44:34.597Z,36.67
2018-12-04T09:47:03.326Z,39.90
2018-12-04T09:49:31.870Z,37.67
2018-12-04T09:51:59.939Z,40.33
2018-12-04T09:54:28.786Z,35.10
2018-12-04T09:56:57.443Z,37.70
2018-12-04T09:59:26.268Z,35.73
2018-12-04T10:01:55.078Z,36.17
2018-12-04T10:04:23.515Z,37.57
2018-12-04T10:06:52.172Z,35.70
2018-12-04T10:09:21.130Z,32.50
2018-12-04T10:11:49.470Z,34.43
2018-12-04T10:14:19.212Z,38.27
2018-12-04T10:16:49.071Z,31.07
2018-12-04T10:19:17.703Z,32.07
2018-12-04T10:21:46.409Z,33.53
2018-12-04T10:24:14.998Z,33.20
2018-12-04T10:26:45.586Z,39.77
2018-12-04T10:29:14.044Z,33.80
2018-12-04T10:31:43.465Z,35.13
2018-12-04T10:34:12.031Z,32.17
2018-12-04T10:36:40.619Z,31.80
2018-12-04T10:39:10.002Z,31.47
2018-12-04T10:41:38.426Z,34.87
2018-12-04T10:44:07.010Z,34.63
2018-12-04T10:46:35.946Z,35.33
2018-12-04T10:49:04.282Z,36.97
2018-12-04T10:51:32.865Z,34.10
2018-12-04T10:54:03.833Z,32.43
2018-12-04T10:56:32.369Z,31.00
2018-12-04T10:59:01.131Z,34.17
2018-12-04T11:01:35.491Z,33.37
2018-12-04T11:04:04.091Z,33.80
2018-12-04T11:06:32.817Z,32.97
2018-12-04T11:09:02.094Z,32.03
2018-12-04T11:11:30.835Z,29.40
2018-12-04T11:13:59.345Z,32.27
2018-12-04T11:16:28.218Z,33.83
2018-12-04T11:18:58.183Z,36.73
2018-12-04T11:21:27.076Z,32.60
2018-12-04T11:23:55.866Z,32.73
2018-12-04T11:26:24.399Z,31.23
2018-12-04T11:28:53.087Z,32.83
2018-12-04T11:31:22.079Z,34.07
2018-12-04T11:33:50.526Z,36.63
2018-12-04T11:36:19.048Z,35.37
2018-12-04T11:38:47.962Z,34.60
2018-12-04T11:41:16.698Z,34.80
2018-12-04T11:43:45.137Z,38.33
2018-12-04T11:46:13.999Z,36.63
2018-12-04T11:48:42.534Z,36.37
2018-12-04T11:51:11.267Z,35.90
2018-12-04T11:53:40.061Z,33.93
2018-12-04T11:56:10.479Z,34.63
2018-12-04T11:58:40.164Z,35.00
2018-12-04T12:01:08.962Z,34.30
2018-12-04T12:03:37.476Z,36.87
2018-12-04T12:06:06.157Z,37.97
2018-12-04T12:08:35.065Z,34.33
2018-12-04T12:11:03.450Z,36.57
2018-12-04T12:13:32.051Z,36.63
2018-12-04T12:16:01.113Z,36.33
2018-12-04T12:18:29.778Z,37.30
2018-12-04T12:21:00.598Z,38.70
2018-12-04T12:23:29.333Z,40.60
2018-12-04T12:26:01.115Z,41.33
2018-12-04T12:28:30.216Z,41.17
2018-12-04T12:30:58.770Z,40.20
2018-12-04T12:33:27.451Z,41.13
2018-12-04T12:35:56.339Z,42.63
2018-12-04T12:38:24.745Z,41.97
2018-12-04T12:40:53.411Z,42.90
2018-12-04T12:43:22.058Z,42.03
2018-12-04T12:45:51.078Z,42.13
2018-12-04T12:48:19.682Z,40.47
2018-12-04T12:50:48.579Z,43.73
2018-12-04T12:53:17.438Z,46.17
2018-12-04T12:55:45.810Z,47.77
2018-12-04T12:58:14.869Z,44.53
2018-12-04T13:00:43.530Z,42.80
2018-12-04T13:03:12.331Z,43.57
2018-12-04T13:05:40.958Z,46.13
2018-12-04T13:08:09.490Z,47.00
2018-12-04T13:10:38.245Z,48.03
2018-12-04T13:13:06.923Z,49.57
2018-12-04T13:15:35.445Z,51.00
2018-12-04T13:18:03.941Z,46.00
2018-12-04T13:20:33.266Z,49.60
2018-12-04T13:23:03.609Z,48.03
2018-12-04T13:25:32.454Z,49.50
2018-12-04T13:28:01.196Z,47.47
2018-12-04T13:30:29.750Z,48.60
2018-12-04T13:32:58.338Z,47.63
2018-12-04T13:35:27.446Z,47.90
2018-12-04T13:37:56.268Z,49.23
2018-12-04T13:40:25.106Z,58.27
2018-12-04T13:42:53.954Z,49.77
2018-12-04T13:45:22.485Z,46.97
2018-12-04T13:47:51.218Z,46.30
2018-12-04T13:50:19.878Z,44.10
2018-12-04T13:52:48.322Z,41.73
2018-12-04T13:55:17.073Z,42.90
2018-12-04T13:57:50.691Z,44.10
2018-12-04T14:00:16.930Z,41.93
2018-12-04T14:02:45.708Z,40.67
2018-12-04T14:05:14.138Z,45.60
2018-12-04T14:07:42.670Z,41.63
2018-12-04T14:10:11.582Z,40.17
2018-12-04T14:12:40.076Z,41.50
2018-12-04T14:15:08.865Z,42.73
2018-12-04T14:17:37.966Z,41.77
2018-12-04T14:20:07.575Z,39.57
2018-12-04T14:22:36.345Z,39.17
2018-12-04T14:25:06.361Z,39.97
2018-12-04T14:27:34.909Z,45.10
2018-12-04T14:30:04.087Z,39.03
2018-12-04T14:32:33.585Z,41.57
2018-12-04T14:35:02.160Z,40.93
2018-12-04T14:37:30.622Z,41.00
2018-12-04T14:39:59.426Z,39.27
2018-12-04T14:42:28.035Z,35.57
2018-12-04T14:44:56.457Z,41.93
2018-12-04T14:47:25.394Z,36.90
2018-12-04T14:49:53.893Z,38.17
2018-12-04T14:52:22.618Z,37.03
2018-12-04T14:54:51.291Z,37.90
2018-12-04T14:57:19.994Z,37.47
2018-12-04T14:59:48.439Z,36.10
2018-12-04T15:02:17.459Z,34.20
2018-12-04T15:04:46.857Z,33.50
2018-12-04T15:07:15.694Z,31.30
2018-12-04T15:09:45.329Z,34.00
2018-12-04T15:12:13.899Z,32.40
2018-12-04T15:14:41.937Z,31.97
2018-12-04T15:17:10.356Z,42.10
2018-12-04T15:19:39.054Z,38.37
2018-12-04T15:22:07.803Z,35.67
2018-12-04T15:24:36.498Z,34.23
2018-12-04T15:27:05.958Z,32.27
2018-12-04T15:29:34.401Z,28.47
2018-12-04T15:32:03.798Z,28.63
2018-12-04T15:34:32.202Z,31.60
2018-12-04T15:37:00.911Z,31.67
2018-12-04T15:39:29.884Z,33.00
2018-12-04T15:41:58.306Z,31.30
2018-12-04T15:44:26.930Z,30.40
2018-12-04T15:46:55.944Z,29.07
2018-12-04T15:49:24.330Z,28.07
2018-12-04T15:51:52.805Z,29.00
2018-12-04T15:54:21.553Z,28.47
2018-12-04T15:56:49.982Z,25.80
2018-12-04T15:59:18.538Z,27.57
2018-12-04T16:01:47.434Z,26.00
2018-12-04T16:04:15.914Z,26.80
2018-12-04T16:06:44.502Z,25.37
2018-12-04T16:09:13.712Z,25.57
2018-12-04T16:11:42.454Z,26.07
2018-12-04T16:14:10.739Z,24.70
2018-12-04T16:16:39.658Z,26.73
2018-12-04T16:19:08.309Z,24.10
2018-12-04T16:21:36.662Z,26.50
2018-12-04T16:24:05.520Z,23.73
2018-12-04T16:26:34.206Z,25.53
2018-12-04T16:29:03.516Z,22.20
2018-12-04T16:31:32.134Z,24.47
2018-12-04T16:34:00.681Z,24.03
2018-12-04T16:36:29.362Z,24.27
2018-12-04T16:38:57.993Z,23.50
2018-12-04T16:41:26.531Z,25.37
2018-12-04T16:43:55.142Z,23.70
2018-12-04T16:46:23.938Z,25.97
2018-12-04T16:48:52.570Z,25.70
2018-12-04T16:51:22.171Z,26.10
2018-12-04T16:53:51.585Z,28.53
2018-12-04T16:56:20.208Z,27.57
2018-12-04T16:58:48.703Z,28.20
2018-12-04T17:01:17.570Z,28.30
2018-12-04T17:03:46.330Z,30.77
2018-12-04T17:06:14.857Z,32.83
2018-12-04T17:08:43.774Z,32.57
2018-12-04T17:11:12.447Z,33.50
2018-12-04T17:13:40.897Z,38.70
2018-12-04T17:16:10.105Z,40.07
2018-12-04T17:18:38.711Z,35.73
2018-12-04T17:21:07.374Z,33.37
2018-12-04T17:23:36.199Z,33.17
2018-12-04T17:26:04.746Z,38.23
2018-12-04T17:28:33.502Z,32.80
2018-12-04T17:31:03.815Z,33.03
2018-12-04T17:33:32.346Z,30.17
2018-12-04T17:36:00.999Z,27.90
2018-12-04T17:38:29.876Z,22.87
2018-12-04T17:40:58.306Z,33.20
2018-12-04T17:43:27.062Z,23.70
2018-12-04T17:45:55.571Z,23.53
2018-12-04T17:48:23.857Z,21.67
2018-12-04T17:50:51.861Z,24.73
2018-12-04T17:53:20.048Z,21.40
2018-12-04T17:55:48.759Z,23.80
2018-12-04T17:58:17.305Z,23.50
2018-12-04T18:00:45.923Z,23.23
2018-12-04T18:03:13.819Z,26.07
2018-12-04T18:05:42.410Z,22.40
2018-12-04T18:08:11.206Z,22.93
2018-12-04T18:10:39.506Z,27.93
2018-12-04T18:13:07.921Z,21.80
2018-12-04T18:15:36.785Z,24.20
2018-12-04T18:18:05.340Z,20.87
2018-12-04T18:20:34.098Z,21.20
2018-12-04T18:23:03.074Z,23.10
2018-12-04T18:25:31.879Z,22.00
2018-12-04T18:28:00.300Z,23.20
2018-12-04T18:30:28.930Z,25.23
2018-12-04T18:32:58.394Z,23.90
2018-12-04T18:35:26.972Z,28.50
2018-12-04T18:37:55.970Z,23.57
2018-12-04T18:40:24.518Z,23.70
2018-12-04T18:42:52.829Z,27.67
2018-12-04T18:45:22.026Z,23.47
2018-12-04T18:47:50.607Z,25.43
2018-12-04T18:50:19.089Z,27.83
2018-12-04T18:52:48.294Z,27.30
2018-12-04T18:55:17.049Z,24.53
2018-12-04T18:57:45.561Z,26.17
2018-12-04T19:00:14.662Z,24.60
2018-12-04T19:02:43.349Z,29.30
2018-12-04T19:05:11.930Z,26.33
2018-12-04T19:07:40.722Z,23.23
2018-12-04T19:10:09.331Z,21.77
2018-12-04T19:12:37.829Z,23.67
2018-12-04T19:15:06.913Z,24.57
2018-12-04T19:17:35.475Z,25.43
2018-12-04T19:20:04.804Z,27.03
2018-12-04T19:22:33.666Z,24.20
2018-12-04T19:25:02.460Z,26.00
2018-12-04T19:27:31.043Z,23.63
2018-12-04T19:30:00.190Z,25.20
2018-12-04T19:32:28.727Z,24.43
2018-12-04T19:34:58.305Z,25.07
2018-12-04T19:37:27.486Z,24.47
2018-12-04T19:39:56.010Z,26.33
2018-12-04T19:42:24.453Z,33.40
2018-12-04T19:44:53.287Z,24.00
2018-12-04T19:47:21.695Z,27.27
2018-12-04T19:49:50.353Z,25.37
2018-12-04T19:52:19.863Z,26.30
2018-12-04T19:54:48.543Z,27.60
2018-12-04T19:57:17.130Z,28.00
2018-12-04T19:59:46.126Z,27.23
2018-12-04T20:02:14.815Z,28.83
2018-12-04T20:04:43.258Z,29.23
2018-12-04T20:07:12.209Z,27.67
2018-12-04T20:09:40.880Z,32.53
2018-12-04T20:12:09.233Z,26.63
2018-12-04T20:14:37.949Z,26.23
2018-12-04T20:17:06.731Z,27.77
2018-12-04T20:19:35.318Z,28.27
2018-12-04T20:22:06.719Z,28.50
2018-12-04T20:24:35.259Z,30.00
2018-12-04T20:27:06.758Z,27.37
2018-12-04T20:29:35.290Z,29.00
2018-12-04T20:32:06.353Z,28.53
2018-12-04T20:34:35.536Z,28.80
2018-12-04T20:37:07.498Z,29.43
2018-12-04T20:39:36.282Z,31.50
2018-12-04T20:42:08.675Z,28.03
2018-12-04T20:44:37.044Z,28.63
2018-12-04T20:47:06.820Z,29.70
2018-12-04T20:49:35.362Z,27.90
2018-12-04T20:52:04.078Z,28.30
2018-12-04T20:54:32.614Z,29.40
2018-12-04T20:57:02.183Z,32.17
2018-12-04T20:59:31.053Z,31.20
2018-12-04T21:01:59.505Z,30.83
2018-12-04T21:04:28.244Z,30.77
2018-12-04T21:06:57.018Z,30.10
2018-12-04T21:09:25.554Z,29.37
2018-12-04T21:11:53.998Z,33.17
2018-12-04T21:14:22.927Z,33.67
2018-12-04T21:16:51.582Z,34.43
2018-12-04T21:19:20.019Z,31.93
2018-12-04T21:21:49.016Z,32.97
2018-12-04T21:24:17.496Z,40.27
2018-12-04T21:26:46.159Z,32.73
2018-12-04T21:29:20.902Z,35.20
2018-12-04T21:31:54.902Z,33.70
2018-12-04T21:34:29.934Z,36.03
2018-12-04T21:37:04.073Z,38.53
2018-12-04T21:39:36.477Z,35.50
2018-12-04T21:45:18.463Z,37.23
2018-12-04T21:47:52.511Z,36.50
2018-12-04T21:50:21.423Z,36.90
2018-12-04T21:52:49.857Z,35.17
2018-12-04T21:55:18.516Z,34.03
2018-12-04T21:57:47.368Z,38.83
2018-12-04T22:00:15.998Z,37.47
2018-12-04T22:02:44.398Z,34.73
2018-12-04T22:05:13.374Z,38.03
2018-12-04T22:07:41.959Z,35.97
2018-12-04T22:10:10.465Z,35.40
2018-12-04T22:12:39.534Z,36.17
2018-12-04T22:15:08.089Z,36.10
2018-12-04T22:17:36.625Z,34.50
2018-12-04T22:20:06.949Z,36.60
2018-12-04T22:22:35.438Z,35.90
2018-12-04T22:25:04.231Z,32.40
2018-12-04T22:27:33.054Z,33.63
2018-12-04T22:30:01.603Z,34.80
2018-12-04T22:32:30.029Z,39.47
2018-12-04T22:34:58.950Z,34.63
2018-12-04T22:37:27.637Z,34.90
2018-12-04T22:39:57.255Z,35.90
2018-12-04T22:42:26.242Z,36.33
2018-12-04T22:44:56.886Z,36.13
2018-12-04T22:47:25.814Z,34.50
2018-12-04T22:49:54.454Z,36.87
2018-12-04T22:52:22.902Z,38.53
2018-12-04T22:54:51.834Z,36.77
2018-12-04T22:57:20.279Z,35.57
2018-12-04T22:59:48.822Z,40.13
2018-12-04T23:02:17.530Z,33.30
2018-12-04T23:04:46.067Z,35.87
2018-12-04T23:07:14.852Z,35.17
2018-12-04T23:09:43.670Z,34.90
2018-12-04T23:12:12.462Z,34.40
2018-12-04T23:14:40.986Z,33.93
2018-12-04T23:17:10.270Z,34.37
2018-12-04T23:19:38.726Z,34.07
2018-12-04T23:22:07.106Z,35.97
2018-12-04T23:24:35.897Z,34.77
2018-12-04T23:27:04.225Z,34.10
2018-12-04T23:29:32.756Z,35.53
2018-12-04T23:32:02.248Z,32.63
2018-12-04T23:34:30.998Z,34.80
2018-12-04T23:36:59.439Z,35.60
2018-12-04T23:39:28.304Z,36.27
2018-12-04T23:41:58.629Z,35.70
2018-12-04T23:44:26.973Z,39.23
2018-12-04T23:46:55.721Z,35.20
2018-12-04T23:49:24.454Z,37.90
2018-12-04T23:51:52.898Z,34.70
2018-12-04T23:54:21.861Z,37.57
2018-12-04T23:56:50.647Z,36.40
2018-12-04T23:59:19.137Z,35.40
